Orient Delivery — 5BNY3 — position and weather

sailwx.info

Track history (hours):
 
Tides and Currents Weather Stations Pressure Air Temp Water Temp Dewpoint Dewpoint Depression Visibility Wind Speed Wind Dir Waves Ship Positions

Orient Delivery

Last reported at 2018-Jan-05 10:33 UTC. Time now 2018-Feb-21 15:42 UTC.
Position N 36°01' W 005°13'.
Warning: this ship's position is 47 days out of date.

Length 183 m; draft 10.2 m.

Type: Cargo ship. MMSI: 209745000.

Date/timePositionNaut miles runAvg speedWind from/ knotsBaromVisibWave heightAir tempDewpointWater temp
2018-Jan-05 10:33N 36°01' W 005°13'116.7
2018-Jan-05 10:30N 36°00' W 005°14'916.5
2018-Jan-05 09:58N 35°58' W 005°24'25710.1
2018-Jan-04 08:32N 38°14' W 009°58'011.4
2018-Jan-04 08:30N 38°14' W 009°58'611.4
2018-Jan-04 08:00N 38°20' W 010°00'611.0
2018-Jan-04 07:30N 38°25' W 010°01'611.0
2018-Jan-04 07:00N 38°31' W 010°03'611.0
2018-Jan-04 06:30N 38°36' W 010°05'511.0
2018-Jan-04 06:00N 38°41' W 010°06'510.9
2018-Jan-04 05:30N 38°47' W 010°07'5 9.7
2018-Jan-04 05:00N 38°51' W 010°07'510.8
2018-Jan-04 04:30N 38°57' W 010°07'510.5
2018-Jan-04 04:00N 39°02' W 010°06'510.7
2018-Jan-04 03:30N 39°07' W 010°06'510.0
2018-Jan-04 03:00N 39°13' W 010°06'811.2
2018-Jan-04 02:20N 39°20' W 010°06'  
2017-Dec-31 07:16N 49°39' W 003°50'10 6.3
2017-Dec-31 05:39N 49°45' W 003°36'1 5.3
2017-Dec-31 05:24N 49°45' W 003°35'2 4.7
2017-Dec-31 05:00N 49°46' W 003°33'3 4.8
2017-Dec-31 04:28N 49°48' W 003°29'2 3.7
2017-Dec-31 03:57N 49°48' W 003°26'2 3.7
2017-Dec-31 03:24N 49°49' W 003°23'1 3.8
2017-Dec-31 03:00N 49°50' W 003°21'2 4.0
2017-Dec-31 02:30N 49°51' W 003°19'2 4.0
2017-Dec-31 02:00N 49°52' W 003°16'2 4.4
2017-Dec-31 01:30N 49°53' W 003°13'3 5.1
2017-Dec-31 01:00N 49°54' W 003°10'3 5.9
2017-Dec-31 00:30N 49°56' W 003°06'3 6.5
2017-Dec-31 00:00N 49°57' W 003°01'3 6.8
2017-Dec-30 23:30N 49°59' W 002°57'4 7.7
2017-Dec-30 23:00N 50°00' W 002°51'4 7.8
2017-Dec-30 22:30N 50°01' W 002°45'4 7.9
2017-Dec-30 22:00N 50°02' W 002°39'4 7.9
2017-Dec-30 21:30N 50°04' W 002°33'68 6.9
2017-Dec-30 11:37N 49°43' W 000°53'111.9
2017-Dec-30 11:30N 49°43' W 000°51'611.4
2017-Dec-30 11:00N 49°40' W 000°43'510.7
2017-Dec-30 10:30N 49°37' W 000°36'510.2
2017-Dec-30 10:00N 49°35' W 000°29'5 9.9
2017-Dec-30 09:30N 49°33' W 000°22'5 9.5
2017-Dec-30 09:00N 49°32' W 000°15'5 9.5
2017-Dec-30 08:30N 49°30' W 000°08'5 9.3
2017-Dec-30 08:01N 49°28' W 000°01'5 9.0
2017-Dec-30 07:30N 49°26' E 000°05'510.8
2017-Dec-30 07:00N 49°26' E 000°13'510.2
2017-Dec-30 06:30N 49°26' E 000°21'4 9.0
2017-Dec-30 06:00N 49°28' E 000°27'3 6.1
2017-Dec-30 05:30N 49°28' E 000°32'3 6.7
2017-Dec-30 05:00N 49°26' E 000°35'4 7.4
2017-Dec-30 04:30N 49°28' E 000°40'4 7.3
2017-Dec-30 04:00N 49°31' E 000°43'4 7.7
2017-Dec-30 03:30N 49°29' E 000°47'4 8.8
2017-Dec-30 03:00N 49°24' E 000°49'3 5.4
2017-Dec-30 02:30N 49°26' E 000°52'4 7.0
2017-Dec-30 02:00N 49°29' E 000°56'510.0
2017-Dec-30 01:30N 49°24' E 000°55'3 6.7
2017-Dec-30 01:00N 49°21' E 000°59'2 4.6
2017-Dec-30 00:30N 49°24' E 001°01'0 0.0
2017-Dec-30 00:00N 49°24' E 001°01'0 0.0
2017-Dec-29 23:30N 49°24' E 001°01'0 0.0
2017-Dec-29 23:00N 49°24' E 001°01'0 0.0
2017-Dec-29 22:30N 49°24' E 001°01'0 0.0
2017-Dec-29 22:00N 49°24' E 001°01'0 0.0
2017-Dec-29 21:30N 49°24' E 001°01'0 0.0
2017-Dec-29 21:00N 49°24' E 001°01'0 0.0
2017-Dec-29 20:30N 49°24' E 001°01'0 0.0
2017-Dec-29 20:00N 49°24' E 001°01'0 0.0
2017-Dec-29 19:30N 49°24' E 001°01'0 0.0
2017-Dec-29 19:00N 49°24' E 001°01'0 0.0
2017-Dec-29 18:30N 49°24' E 001°01'0 0.0
2017-Dec-29 18:00N 49°24' E 001°01'0 0.0
2017-Dec-29 17:30N 49°24' E 001°01'0 0.0
2017-Dec-29 17:00N 49°24' E 001°01'0 0.0
2017-Dec-29 16:30N 49°24' E 001°01'0 0.0
2017-Dec-29 16:00N 49°24' E 001°01'0 0.0
2017-Dec-29 15:30N 49°24' E 001°01'0 0.0
2017-Dec-29 15:00N 49°24' E 001°01'0 0.0
2017-Dec-29 14:30N 49°24' E 001°01'0 0.0
2017-Dec-29 14:00N 49°24' E 001°01'0 0.0
2017-Dec-29 13:30N 49°24' E 001°01'0 0.0
2017-Dec-29 13:00N 49°24' E 001°01'0 0.0
2017-Dec-29 12:30N 49°24' E 001°01'0 0.0
2017-Dec-29 12:00N 49°24' E 001°01'0 0.0
2017-Dec-29 11:30N 49°24' E 001°01'0 0.0
2017-Dec-29 11:00N 49°24' E 001°01'0 0.0
2017-Dec-29 10:30N 49°24' E 001°01'0 0.0
2017-Dec-29 10:00N 49°24' E 001°01'0 0.0
2017-Dec-29 09:30N 49°24' E 001°01'0 0.0
2017-Dec-29 09:00N 49°24' E 001°01'0 0.0
2017-Dec-29 08:30N 49°24' E 001°01'0 0.0
2017-Dec-29 08:00N 49°24' E 001°01'0 0.0
2017-Dec-29 07:30N 49°24' E 001°01'0 0.0
2017-Dec-29 07:00N 49°24' E 001°01'0 0.0
2017-Dec-29 06:30N 49°24' E 001°01'0 0.0
2017-Dec-29 05:57N 49°24' E 001°01'0 0.0
2017-Dec-29 05:30N 49°24' E 001°01'0 0.0
2017-Dec-29 05:00N 49°24' E 001°01'0 0.0
2017-Dec-29 04:30N 49°24' E 001°01'0 0.0
2017-Dec-29 04:00N 49°24' E 001°01'0 0.0
2017-Dec-29 03:30N 49°24' E 001°01'0 0.0
2017-Dec-29 03:00N 49°24' E 001°01'0 0.0
2017-Dec-29 02:30N 49°24' E 001°01'0 0.0
2017-Dec-29 02:00N 49°24' E 001°01'0 0.0
2017-Dec-29 01:30N 49°24' E 001°01'0 0.0
2017-Dec-29 01:00N 49°24' E 001°01'0 0.0
2017-Dec-29 00:30N 49°24' E 001°01'0 0.0
2017-Dec-29 00:00N 49°24' E 001°01'0 0.0
2017-Dec-28 23:30N 49°24' E 001°01'0 0.0
2017-Dec-28 23:00N 49°24' E 001°01'0 0.0
2017-Dec-28 22:30N 49°24' E 001°01'0 0.0
2017-Dec-28 22:00N 49°24' E 001°01'0 0.0
2017-Dec-28 21:30N 49°24' E 001°01'0 0.0
2017-Dec-28 21:00N 49°24' E 001°01'0 0.0
2017-Dec-28 20:30N 49°24' E 001°01'0 0.0
2017-Dec-28 20:00N 49°24' E 001°01'0 0.0
2017-Dec-28 19:30N 49°24' E 001°01'0 0.0
2017-Dec-28 19:00N 49°24' E 001°01'0 0.0
2017-Dec-28 18:30N 49°24' E 001°01'0 0.0
2017-Dec-28 18:00N 49°24' E 001°01'0 0.0
2017-Dec-28 17:30N 49°24' E 001°01'0 0.0
2017-Dec-28 17:00N 49°24' E 001°01'0 0.0
2017-Dec-28 16:30N 49°24' E 001°01'0 0.0
2017-Dec-28 16:00N 49°24' E 001°01'0 0.0
2017-Dec-28 15:27N 49°24' E 001°01'0 0.0
2017-Dec-28 15:00N 49°24' E 001°01'0 0.0
2017-Dec-28 14:30N 49°24' E 001°01'0 0.0
2017-Dec-28 14:00N 49°24' E 001°01'0 0.0
2017-Dec-28 13:30N 49°24' E 001°01'0 0.0
2017-Dec-28 13:00N 49°24' E 001°01'0 0.0
2017-Dec-28 12:30N 49°24' E 001°01'0 0.0
2017-Dec-28 12:00N 49°24' E 001°01'0 0.0
2017-Dec-28 11:27N 49°24' E 001°01'0 0.0
2017-Dec-28 11:00N 49°24' E 001°01'0 0.0
2017-Dec-28 10:30N 49°24' E 001°01'0 0.0
2017-Dec-28 10:00N 49°24' E 001°01'0 0.0
2017-Dec-28 09:30N 49°24' E 001°01'0 0.0
2017-Dec-28 09:00N 49°24' E 001°01'0 0.0
2017-Dec-28 08:30N 49°24' E 001°01'0 0.0
2017-Dec-28 08:00N 49°24' E 001°01'0 0.0
2017-Dec-28 07:30N 49°24' E 001°01'0 0.0
2017-Dec-28 06:54N 49°24' E 001°01'0 0.0
2017-Dec-28 06:30N 49°24' E 001°01'0 0.0
2017-Dec-28 06:00N 49°24' E 001°01'0 0.0
2017-Dec-28 05:30N 49°24' E 001°01'0 0.0
2017-Dec-28 05:00N 49°24' E 001°01'0 0.0
2017-Dec-28 04:30N 49°24' E 001°01'0 0.0
2017-Dec-28 04:00N 49°24' E 001°01'0 0.0
2017-Dec-28 03:30N 49°24' E 001°01'0 0.0
2017-Dec-28 03:00N 49°24' E 001°01'0 0.0
2017-Dec-28 02:30N 49°24' E 001°01'0 0.0
2017-Dec-28 02:00N 49°24' E 001°01'0 0.0
2017-Dec-28 01:30N 49°24' E 001°01'0 0.0
2017-Dec-28 01:00N 49°24' E 001°01'0 0.0
2017-Dec-28 00:30N 49°24' E 001°01'0 0.0
2017-Dec-28 00:00N 49°24' E 001°01'0 0.0
2017-Dec-27 23:30N 49°24' E 001°01'0 0.0
2017-Dec-27 23:00N 49°24' E 001°01'0 0.0
2017-Dec-27 22:30N 49°24' E 001°01'0 0.0
2017-Dec-27 22:00N 49°24' E 001°01'0 0.0
2017-Dec-27 21:30N 49°24' E 001°01'0 0.0
2017-Dec-27 21:00N 49°24' E 001°01'0 0.0
2017-Dec-27 20:24N 49°24' E 001°01'0 0.0
2017-Dec-27 20:00N 49°24' E 001°01'0 0.0
2017-Dec-27 19:30N 49°24' E 001°01'0 0.0
2017-Dec-27 19:00N 49°24' E 001°01'0 0.0
2017-Dec-27 18:30N 49°24' E 001°01'0 0.0
2017-Dec-27 17:54N 49°24' E 001°01'0 0.0
2017-Dec-27 17:30N 49°24' E 001°01'0 0.0
2017-Dec-27 16:57N 49°24' E 001°01'0 0.0
2017-Dec-27 16:30N 49°24' E 001°01'0 0.0
2017-Dec-27 16:00N 49°24' E 001°01'0 0.0
2017-Dec-27 15:30N 49°24' E 001°01'0 0.0
2017-Dec-27 14:57N 49°24' E 001°01'0 0.0
2017-Dec-27 14:30N 49°24' E 001°01'0 0.0
2017-Dec-27 14:00N 49°24' E 001°01'0 0.0
2017-Dec-27 13:30N 49°24' E 001°01'0 0.0
2017-Dec-27 13:00N 49°24' E 001°01'0 0.0
2017-Dec-27 12:30N 49°24' E 001°01'0 0.0
2017-Dec-27 12:00N 49°24' E 001°01'0 0.0
2017-Dec-27 11:30N 49°24' E 001°01'0 0.0
2017-Dec-27 11:00N 49°24' E 001°01'0 0.0
2017-Dec-27 10:30N 49°24' E 001°01'0 0.0
2017-Dec-27 10:00N 49°24' E 001°01'0 0.0
2017-Dec-27 09:30N 49°24' E 001°01'0 0.0
2017-Dec-27 09:00N 49°24' E 001°01'0 0.0
2017-Dec-27 08:30N 49°24' E 001°01'0 0.0
2017-Dec-27 08:00N 49°24' E 001°01'0 0.0
2017-Dec-27 07:30N 49°24' E 001°01'0 0.0
2017-Dec-27 07:00N 49°24' E 001°01'0 0.0
2017-Dec-27 06:30N 49°24' E 001°01'0 0.0
2017-Dec-27 05:54N 49°24' E 001°01'0 0.0
2017-Dec-27 05:30N 49°24' E 001°01'0 0.0
2017-Dec-27 04:57N 49°24' E 001°01'0 0.0
2017-Dec-27 04:30N 49°24' E 001°01'2 3.6
2017-Dec-27 04:00N 49°25' E 001°01'2 3.0
2017-Dec-27 03:30N 49°26' E 001°03'0 0.0
2017-Dec-27 03:00N 49°26' E 001°03'0 0.0
2017-Dec-27 02:30N 49°26' E 001°03'0 0.0
2017-Dec-27 02:00N 49°26' E 001°03'0 0.0
2017-Dec-27 01:30N 49°26' E 001°03'0 0.0
2017-Dec-27 01:00N 49°26' E 001°03'0 0.0
2017-Dec-27 00:30N 49°26' E 001°03'0 0.0
2017-Dec-27 00:00N 49°26' E 001°03'0 0.0
2017-Dec-26 23:30N 49°26' E 001°03'0 0.0
2017-Dec-26 23:00N 49°26' E 001°03'0 0.0
2017-Dec-26 22:30N 49°26' E 001°03'0 0.0
2017-Dec-26 22:00N 49°26' E 001°03'0 0.0
2017-Dec-26 21:30N 49°26' E 001°03'0 0.0
2017-Dec-26 21:00N 49°26' E 001°03'0 0.0
2017-Dec-26 20:30N 49°26' E 001°03'0 0.0
2017-Dec-26 20:00N 49°26' E 001°03'0 0.0
2017-Dec-26 19:30N 49°26' E 001°03'0 0.0
2017-Dec-26 18:59N 49°26' E 001°03'0 0.0
2017-Dec-26 18:26N 49°26' E 001°03'0 0.0
2017-Dec-26 18:00N 49°26' E 001°03'0 0.0
2017-Dec-26 17:30N 49°26' E 001°03'0 0.0
2017-Dec-26 17:00N 49°26' E 001°03'0 0.0
2017-Dec-26 16:30N 49°26' E 001°03'0 0.0
2017-Dec-26 16:00N 49°26' E 001°03'0 0.0
2017-Dec-26 15:30N 49°26' E 001°03'0 0.0
2017-Dec-26 14:59N 49°26' E 001°03'0 0.1
2017-Dec-26 14:30N 49°26' E 001°03'0 0.1
2017-Dec-26 14:00N 49°26' E 001°03'0 0.0
2017-Dec-26 13:30N 49°26' E 001°03'0 0.0
2017-Dec-26 13:00N 49°26' E 001°03'0 0.0
2017-Dec-26 12:27N 49°26' E 001°03'0 0.0
2017-Dec-26 12:00N 49°26' E 001°03'0 0.0
2017-Dec-26 11:30N 49°26' E 001°03'0 0.0
2017-Dec-26 11:00N 49°26' E 001°03'  
Track history (hours):
 
Tides and Currents Weather Stations Pressure Air Temp Water Temp Dewpoint Dewpoint Depression Visibility Wind Speed Wind Dir Waves Ship Positions

Orient Delivery

Last reported at 2018-Jan-05 10:33 UTC. Time now 2018-Feb-21 15:42 UTC.
Position N 36°01' W 005°13'.
Warning: this ship's position is 47 days out of date.

Length 183 m; draft 10.2 m.

Type: Cargo ship. MMSI: 209745000.

Date/timePositionNaut miles runAvg speedWind from/ knotsBaromVisibWave heightAir tempDewpointWater temp
2018-Jan-05 10:33N 36°01' W 005°13'116.7
2018-Jan-05 10:30N 36°00' W 005°14'916.5
2018-Jan-05 09:58N 35°58' W 005°24'25710.1
2018-Jan-04 08:32N 38°14' W 009°58'011.4
2018-Jan-04 08:30N 38°14' W 009°58'611.4
2018-Jan-04 08:00N 38°20' W 010°00'611.0
2018-Jan-04 07:30N 38°25' W 010°01'611.0
2018-Jan-04 07:00N 38°31' W 010°03'611.0
2018-Jan-04 06:30N 38°36' W 010°05'511.0
2018-Jan-04 06:00N 38°41' W 010°06'510.9
2018-Jan-04 05:30N 38°47' W 010°07'5 9.7
2018-Jan-04 05:00N 38°51' W 010°07'510.8
2018-Jan-04 04:30N 38°57' W 010°07'510.5
2018-Jan-04 04:00N 39°02' W 010°06'510.7
2018-Jan-04 03:30N 39°07' W 010°06'510.0
2018-Jan-04 03:00N 39°13' W 010°06'811.2
2018-Jan-04 02:20N 39°20' W 010°06'  
2017-Dec-31 07:16N 49°39' W 003°50'10 6.3
2017-Dec-31 05:39N 49°45' W 003°36'1 5.3
2017-Dec-31 05:24N 49°45' W 003°35'2 4.7
2017-Dec-31 05:00N 49°46' W 003°33'3 4.8
2017-Dec-31 04:28N 49°48' W 003°29'2 3.7
2017-Dec-31 03:57N 49°48' W 003°26'2 3.7
2017-Dec-31 03:24N 49°49' W 003°23'1 3.8
2017-Dec-31 03:00N 49°50' W 003°21'2 4.0
2017-Dec-31 02:30N 49°51' W 003°19'2 4.0
2017-Dec-31 02:00N 49°52' W 003°16'2 4.4
2017-Dec-31 01:30N 49°53' W 003°13'3 5.1
2017-Dec-31 01:00N 49°54' W 003°10'3 5.9
2017-Dec-31 00:30N 49°56' W 003°06'3 6.5
2017-Dec-31 00:00N 49°57' W 003°01'3 6.8
2017-Dec-30 23:30N 49°59' W 002°57'4 7.7
2017-Dec-30 23:00N 50°00' W 002°51'4 7.8
2017-Dec-30 22:30N 50°01' W 002°45'4 7.9
2017-Dec-30 22:00N 50°02' W 002°39'4 7.9
2017-Dec-30 21:30N 50°04' W 002°33'68 6.9
2017-Dec-30 11:37N 49°43' W 000°53'111.9
2017-Dec-30 11:30N 49°43' W 000°51'611.4
2017-Dec-30 11:00N 49°40' W 000°43'510.7
2017-Dec-30 10:30N 49°37' W 000°36'510.2
2017-Dec-30 10:00N 49°35' W 000°29'5 9.9
2017-Dec-30 09:30N 49°33' W 000°22'5 9.5
2017-Dec-30 09:00N 49°32' W 000°15'5 9.5
2017-Dec-30 08:30N 49°30' W 000°08'5 9.3
2017-Dec-30 08:01N 49°28' W 000°01'5 9.0
2017-Dec-30 07:30N 49°26' E 000°05'510.8
2017-Dec-30 07:00N 49°26' E 000°13'510.2
2017-Dec-30 06:30N 49°26' E 000°21'4 9.0
2017-Dec-30 06:00N 49°28' E 000°27'3 6.1
2017-Dec-30 05:30N 49°28' E 000°32'3 6.7
2017-Dec-30 05:00N 49°26' E 000°35'4 7.4
2017-Dec-30 04:30N 49°28' E 000°40'4 7.3
2017-Dec-30 04:00N 49°31' E 000°43'4 7.7
2017-Dec-30 03:30N 49°29' E 000°47'4 8.8
2017-Dec-30 03:00N 49°24' E 000°49'3 5.4
2017-Dec-30 02:30N 49°26' E 000°52'4 7.0
2017-Dec-30 02:00N 49°29' E 000°56'510.0
2017-Dec-30 01:30N 49°24' E 000°55'3 6.7
2017-Dec-30 01:00N 49°21' E 000°59'2 4.6
2017-Dec-30 00:30N 49°24' E 001°01'0 0.0
2017-Dec-30 00:00N 49°24' E 001°01'0 0.0
2017-Dec-29 23:30N 49°24' E 001°01'0 0.0
2017-Dec-29 23:00N 49°24' E 001°01'0 0.0
2017-Dec-29 22:30N 49°24' E 001°01'0 0.0
2017-Dec-29 22:00N 49°24' E 001°01'0 0.0
2017-Dec-29 21:30N 49°24' E 001°01'0 0.0
2017-Dec-29 21:00N 49°24' E 001°01'0 0.0
2017-Dec-29 20:30N 49°24' E 001°01'0 0.0
2017-Dec-29 20:00N 49°24' E 001°01'0 0.0
2017-Dec-29 19:30N 49°24' E 001°01'0 0.0
2017-Dec-29 19:00N 49°24' E 001°01'0 0.0
2017-Dec-29 18:30N 49°24' E 001°01'0 0.0
2017-Dec-29 18:00N 49°24' E 001°01'0 0.0
2017-Dec-29 17:30N 49°24' E 001°01'0 0.0
2017-Dec-29 17:00N 49°24' E 001°01'0 0.0
2017-Dec-29 16:30N 49°24' E 001°01'0 0.0
2017-Dec-29 16:00N 49°24' E 001°01'0 0.0
2017-Dec-29 15:30N 49°24' E 001°01'0 0.0
2017-Dec-29 15:00N 49°24' E 001°01'0 0.0
2017-Dec-29 14:30N 49°24' E 001°01'0 0.0
2017-Dec-29 14:00N 49°24' E 001°01'0 0.0
2017-Dec-29 13:30N 49°24' E 001°01'0 0.0
2017-Dec-29 13:00N 49°24' E 001°01'0 0.0
2017-Dec-29 12:30N 49°24' E 001°01'0 0.0
2017-Dec-29 12:00N 49°24' E 001°01'0 0.0
2017-Dec-29 11:30N 49°24' E 001°01'0 0.0
2017-Dec-29 11:00N 49°24' E 001°01'0 0.0
2017-Dec-29 10:30N 49°24' E 001°01'0 0.0
2017-Dec-29 10:00N 49°24' E 001°01'0 0.0
2017-Dec-29 09:30N 49°24' E 001°01'0 0.0
2017-Dec-29 09:00N 49°24' E 001°01'0 0.0
2017-Dec-29 08:30N 49°24' E 001°01'0 0.0
2017-Dec-29 08:00N 49°24' E 001°01'0 0.0
2017-Dec-29 07:30N 49°24' E 001°01'0 0.0
2017-Dec-29 07:00N 49°24' E 001°01'0 0.0
2017-Dec-29 06:30N 49°24' E 001°01'0 0.0
2017-Dec-29 05:57N 49°24' E 001°01'0 0.0
2017-Dec-29 05:30N 49°24' E 001°01'0 0.0
2017-Dec-29 05:00N 49°24' E 001°01'0 0.0
2017-Dec-29 04:30N 49°24' E 001°01'0 0.0
2017-Dec-29 04:00N 49°24' E 001°01'0 0.0
2017-Dec-29 03:30N 49°24' E 001°01'0 0.0
2017-Dec-29 03:00N 49°24' E 001°01'0 0.0
2017-Dec-29 02:30N 49°24' E 001°01'0 0.0
2017-Dec-29 02:00N 49°24' E 001°01'0 0.0
2017-Dec-29 01:30N 49°24' E 001°01'0 0.0
2017-Dec-29 01:00N 49°24' E 001°01'0 0.0
2017-Dec-29 00:30N 49°24' E 001°01'0 0.0
2017-Dec-29 00:00N 49°24' E 001°01'0 0.0
2017-Dec-28 23:30N 49°24' E 001°01'0 0.0
2017-Dec-28 23:00N 49°24' E 001°01'0 0.0
2017-Dec-28 22:30N 49°24' E 001°01'0 0.0
2017-Dec-28 22:00N 49°24' E 001°01'0 0.0
2017-Dec-28 21:30N 49°24' E 001°01'0 0.0
2017-Dec-28 21:00N 49°24' E 001°01'0 0.0
2017-Dec-28 20:30N 49°24' E 001°01'0 0.0
2017-Dec-28 20:00N 49°24' E 001°01'0 0.0
2017-Dec-28 19:30N 49°24' E 001°01'0 0.0
2017-Dec-28 19:00N 49°24' E 001°01'0 0.0
2017-Dec-28 18:30N 49°24' E 001°01'0 0.0
2017-Dec-28 18:00N 49°24' E 001°01'0 0.0
2017-Dec-28 17:30N 49°24' E 001°01'0 0.0
2017-Dec-28 17:00N 49°24' E 001°01'0 0.0
2017-Dec-28 16:30N 49°24' E 001°01'0 0.0
2017-Dec-28 16:00N 49°24' E 001°01'0 0.0
2017-Dec-28 15:27N 49°24' E 001°01'0 0.0
2017-Dec-28 15:00N 49°24' E 001°01'0 0.0
2017-Dec-28 14:30N 49°24' E 001°01'0 0.0
2017-Dec-28 14:00N 49°24' E 001°01'0 0.0
2017-Dec-28 13:30N 49°24' E 001°01'0 0.0
2017-Dec-28 13:00N 49°24' E 001°01'0 0.0
2017-Dec-28 12:30N 49°24' E 001°01'0 0.0
2017-Dec-28 12:00N 49°24' E 001°01'0 0.0
2017-Dec-28 11:27N 49°24' E 001°01'0 0.0
2017-Dec-28 11:00N 49°24' E 001°01'0 0.0
2017-Dec-28 10:30N 49°24' E 001°01'0 0.0
2017-Dec-28 10:00N 49°24' E 001°01'0 0.0
2017-Dec-28 09:30N 49°24' E 001°01'0 0.0
2017-Dec-28 09:00N 49°24' E 001°01'0 0.0
2017-Dec-28 08:30N 49°24' E 001°01'0 0.0
2017-Dec-28 08:00N 49°24' E 001°01'0 0.0
2017-Dec-28 07:30N 49°24' E 001°01'0 0.0
2017-Dec-28 06:54N 49°24' E 001°01'0 0.0
2017-Dec-28 06:30N 49°24' E 001°01'0 0.0
2017-Dec-28 06:00N 49°24' E 001°01'0 0.0
2017-Dec-28 05:30N 49°24' E 001°01'0 0.0
2017-Dec-28 05:00N 49°24' E 001°01'0 0.0
2017-Dec-28 04:30N 49°24' E 001°01'0 0.0
2017-Dec-28 04:00N 49°24' E 001°01'0 0.0
2017-Dec-28 03:30N 49°24' E 001°01'0 0.0
2017-Dec-28 03:00N 49°24' E 001°01'0 0.0
2017-Dec-28 02:30N 49°24' E 001°01'0 0.0
2017-Dec-28 02:00N 49°24' E 001°01'0 0.0
2017-Dec-28 01:30N 49°24' E 001°01'0 0.0
2017-Dec-28 01:00N 49°24' E 001°01'0 0.0
2017-Dec-28 00:30N 49°24' E 001°01'0 0.0
2017-Dec-28 00:00N 49°24' E 001°01'0 0.0
2017-Dec-27 23:30N 49°24' E 001°01'0 0.0
2017-Dec-27 23:00N 49°24' E 001°01'0 0.0
2017-Dec-27 22:30N 49°24' E 001°01'0 0.0
2017-Dec-27 22:00N 49°24' E 001°01'0 0.0
2017-Dec-27 21:30N 49°24' E 001°01'0 0.0
2017-Dec-27 21:00N 49°24' E 001°01'0 0.0
2017-Dec-27 20:24N 49°24' E 001°01'0 0.0
2017-Dec-27 20:00N 49°24' E 001°01'0 0.0
2017-Dec-27 19:30N 49°24' E 001°01'0 0.0
2017-Dec-27 19:00N 49°24' E 001°01'0 0.0
2017-Dec-27 18:30N 49°24' E 001°01'0 0.0
2017-Dec-27 17:54N 49°24' E 001°01'0 0.0
2017-Dec-27 17:30N 49°24' E 001°01'0 0.0
2017-Dec-27 16:57N 49°24' E 001°01'0 0.0
2017-Dec-27 16:30N 49°24' E 001°01'0 0.0
2017-Dec-27 16:00N 49°24' E 001°01'0 0.0
2017-Dec-27 15:30N 49°24' E 001°01'0 0.0
2017-Dec-27 14:57N 49°24' E 001°01'0 0.0
2017-Dec-27 14:30N 49°24' E 001°01'0 0.0
2017-Dec-27 14:00N 49°24' E 001°01'0 0.0
2017-Dec-27 13:30N 49°24' E 001°01'0 0.0
2017-Dec-27 13:00N 49°24' E 001°01'0 0.0
2017-Dec-27 12:30N 49°24' E 001°01'0 0.0
2017-Dec-27 12:00N 49°24' E 001°01'0 0.0
2017-Dec-27 11:30N 49°24' E 001°01'0 0.0
2017-Dec-27 11:00N 49°24' E 001°01'0 0.0
2017-Dec-27 10:30N 49°24' E 001°01'0 0.0
2017-Dec-27 10:00N 49°24' E 001°01'0 0.0
2017-Dec-27 09:30N 49°24' E 001°01'0 0.0
2017-Dec-27 09:00N 49°24' E 001°01'0 0.0
2017-Dec-27 08:30N 49°24' E 001°01'0 0.0
2017-Dec-27 08:00N 49°24' E 001°01'0 0.0
2017-Dec-27 07:30N 49°24' E 001°01'0 0.0
2017-Dec-27 07:00N 49°24' E 001°01'0 0.0
2017-Dec-27 06:30N 49°24' E 001°01'0 0.0
2017-Dec-27 05:54N 49°24' E 001°01'0 0.0
2017-Dec-27 05:30N 49°24' E 001°01'0 0.0
2017-Dec-27 04:57N 49°24' E 001°01'0 0.0
2017-Dec-27 04:30N 49°24' E 001°01'2 3.6
2017-Dec-27 04:00N 49°25' E 001°01'2 3.0
2017-Dec-27 03:30N 49°26' E 001°03'0 0.0
2017-Dec-27 03:00N 49°26' E 001°03'0 0.0
2017-Dec-27 02:30N 49°26' E 001°03'0 0.0
2017-Dec-27 02:00N 49°26' E 001°03'0 0.0
2017-Dec-27 01:30N 49°26' E 001°03'0 0.0
2017-Dec-27 01:00N 49°26' E 001°03'0 0.0
2017-Dec-27 00:30N 49°26' E 001°03'0 0.0
2017-Dec-27 00:00N 49°26' E 001°03'0 0.0
2017-Dec-26 23:30N 49°26' E 001°03'0 0.0
2017-Dec-26 23:00N 49°26' E 001°03'0 0.0
2017-Dec-26 22:30N 49°26' E 001°03'0 0.0
2017-Dec-26 22:00N 49°26' E 001°03'0 0.0
2017-Dec-26 21:30N 49°26' E 001°03'0 0.0
2017-Dec-26 21:00N 49°26' E 001°03'0 0.0
2017-Dec-26 20:30N 49°26' E 001°03'0 0.0
2017-Dec-26 20:00N 49°26' E 001°03'0 0.0
2017-Dec-26 19:30N 49°26' E 001°03'0 0.0
2017-Dec-26 18:59N 49°26' E 001°03'0 0.0
2017-Dec-26 18:26N 49°26' E 001°03'0 0.0
2017-Dec-26 18:00N 49°26' E 001°03'0 0.0
2017-Dec-26 17:30N 49°26' E 001°03'0 0.0
2017-Dec-26 17:00N 49°26' E 001°03'0 0.0
2017-Dec-26 16:30N 49°26' E 001°03'0 0.0
2017-Dec-26 16:00N 49°26' E 001°03'0 0.0
2017-Dec-26 15:30N 49°26' E 001°03'0 0.0
2017-Dec-26 14:59N 49°26' E 001°03'0 0.1
2017-Dec-26 14:30N 49°26' E 001°03'0 0.1
2017-Dec-26 14:00N 49°26' E 001°03'0 0.0
2017-Dec-26 13:30N 49°26' E 001°03'0 0.0
2017-Dec-26 13:00N 49°26' E 001°03'0 0.0
2017-Dec-26 12:27N 49°26' E 001°03'0 0.0
2017-Dec-26 12:00N 49°26' E 001°03'0 0.0
2017-Dec-26 11:30N 49°26' E 001°03'0 0.0
2017-Dec-26 11:00N 49°26' E 001°03'  

Dump ship's entire track history